New Philadelphia, Ohio
Current Conditions -  °F | °C
As of 6:53 PM on Saturday 25 Oct 2014 (Local Time) from KPHD Reporting Station
Clear Clear  
Wind Chill: 67°   Ceiling: Unl
Heat Index: 67°   Visibility: 10mi
Dew Point: 53°   Wind: 6mph
Humidity: 61%   Direction: 250°WSW
Pressure: 29.78"   Gusts: NA
Location:  40.49°N, 81.45°W
Report Text: KPHD 252253Z AUTO 25005KT 10SM CLR 19/12 A2978 RMK AO2 SLP084 T01940117
Loading
Personal Weather Stations






























Interactive Weather Map
Tropical Storm Tracking
New forecast layout! Learn more

10-Day Weather Forecast

Advertisements
Track Severe Weather on mobile